sensor_id;sensor_type;location;lat;lon;timestamp;pressure;altitude;pressure_sealevel;temperature;humidity
21504;BME280;10913;51.992;9.228;2023-03-23T00:01:11;99210.41;;;13.25;90.96
21504;BME280;10913;51.992;9.228;2023-03-23T00:03:38;99207.16;;;13.17;92.20
21504;BME280;10913;51.992;9.228;2023-03-23T00:06:04;99205.47;;;13.14;92.50
21504;BME280;10913;51.992;9.228;2023-03-23T00:08:34;99202.00;;;13.12;92.39
21504;BME280;10913;51.992;9.228;2023-03-23T00:11:05;99201.22;;;13.08;92.47
21504;BME280;10913;51.992;9.228;2023-03-23T00:13:30;99210.25;;;13.03;92.78
21504;BME280;10913;51.992;9.228;2023-03-23T00:15:57;99208.47;;;13.03;91.74
21504;BME280;10913;51.992;9.228;2023-03-23T00:18:23;99203.25;;;13.00;91.44
21504;BME280;10913;51.992;9.228;2023-03-23T00:20:51;99205.13;;;12.98;91.19
21504;BME280;10913;51.992;9.228;2023-03-23T00:23:18;99196.34;;;12.96;90.72
21504;BME280;10913;51.992;9.228;2023-03-23T00:25:49;99198.09;;;12.97;90.98
21504;BME280;10913;51.992;9.228;2023-03-23T00:28:16;99208.69;;;12.97;91.90
21504;BME280;10913;51.992;9.228;2023-03-23T00:30:42;99196.22;;;12.99;92.18
21504;BME280;10913;51.992;9.228;2023-03-23T00:33:11;99176.88;;;12.97;91.98
21504;BME280;10913;51.992;9.228;2023-03-23T00:35:38;99175.19;;;12.95;92.08
21504;BME280;10913;51.992;9.228;2023-03-23T00:38:05;99185.78;;;12.95;92.06
21504;BME280;10913;51.992;9.228;2023-03-23T00:40:30;99185.03;;;12.91;91.79
21504;BME280;10913;51.992;9.228;2023-03-23T00:42:56;99183.34;;;12.89;92.38
21504;BME280;10913;51.992;9.228;2023-03-23T00:45:21;99177.19;;;12.88;92.74
21504;BME280;10913;51.992;9.228;2023-03-23T00:47:49;99156.84;;;12.89;92.43
21504;BME280;10913;51.992;9.228;2023-03-23T00:50:16;99166.56;;;12.88;92.72
21504;BME280;10913;51.992;9.228;2023-03-23T00:52:43;99163.97;;;12.87;93.58
21504;BME280;10913;51.992;9.228;2023-03-23T00:55:08;99171.09;;;12.85;92.50
21504;BME280;10913;51.992;9.228;2023-03-23T00:57:34;99170.25;;;12.84;92.32
21504;BME280;10913;51.992;9.228;2023-03-23T01:00:00;99159.63;;;12.84;92.57
21504;BME280;10913;51.992;9.228;2023-03-23T01:02:25;99171.16;;;12.83;92.64
21504;BME280;10913;51.992;9.228;2023-03-23T01:04:51;99167.63;;;12.83;92.21
21504;BME280;10913;51.992;9.228;2023-03-23T01:07:20;99158.69;;;12.87;92.17
21504;BME280;10913;51.992;9.228;2023-03-23T01:09:48;99159.59;;;12.86;92.43
21504;BME280;10913;51.992;9.228;2023-03-23T01:12:13;99162.25;;;12.86;92.41
21504;BME280;10913;51.992;9.228;2023-03-23T01:14:40;99151.63;;;12.86;92.31
21504;BME280;10913;51.992;9.228;2023-03-23T01:17:06;99172.03;;;12.84;92.02
21504;BME280;10913;51.992;9.228;2023-03-23T01:19:31;99161.44;;;12.84;92.72
21504;BME280;10913;51.992;9.228;2023-03-23T01:21:57;99151.75;;;12.83;92.93
21504;BME280;10913;51.992;9.228;2023-03-23T01:24:22;99150.00;;;12.82;93.95
21504;BME280;10913;51.992;9.228;2023-03-23T01:26:47;99146.66;;;12.76;95.21
21504;BME280;10913;51.992;9.228;2023-03-23T01:29:13;99142.38;;;12.72;95.50
21504;BME280;10913;51.992;9.228;2023-03-23T01:31:38;99133.47;;;12.75;95.80
21504;BME280;10913;51.992;9.228;2023-03-23T01:34:04;99139.78;;;12.71;97.19
21504;BME280;10913;51.992;9.228;2023-03-23T01:36:30;99128.41;;;12.67;97.34
21504;BME280;10913;51.992;9.228;2023-03-23T01:38:59;99124.13;;;12.63;98.61
21504;BME280;10913;51.992;9.228;2023-03-23T01:41:26;99134.03;;;12.58;98.40
21504;BME280;10913;51.992;9.228;2023-03-23T01:43:58;99128.91;;;12.54;99.36
21504;BME280;10913;51.992;9.228;2023-03-23T01:46:27;99131.63;;;12.51;99.62
21504;BME280;10913;51.992;9.228;2023-03-23T01:48:55;99130.81;;;12.49;100.00
21504;BME280;10913;51.992;9.228;2023-03-23T01:51:24;99134.38;;;12.48;100.00
21504;BME280;10913;51.992;9.228;2023-03-23T01:53:55;99137.91;;;12.48;100.00
21504;BME280;10913;51.992;9.228;2023-03-23T01:56:24;99138.88;;;12.46;100.00
21504;BME280;10913;51.992;9.228;2023-03-23T01:58:53;99139.81;;;12.43;99.83
21504;BME280;10913;51.992;9.228;2023-03-23T02:01:20;99136.25;;;12.44;100.00
21504;BME280;10913;51.992;9.228;2023-03-23T02:03:54;99138.91;;;12.44;100.00
21504;BME280;10913;51.992;9.228;2023-03-23T02:06:21;99134.38;;;12.48;100.00
21504;BME280;10913;51.992;9.228;2023-03-23T02:08:48;99131.78;;;12.46;100.00
21504;BME280;10913;51.992;9.228;2023-03-23T02:11:17;99136.25;;;12.44;100.00
21504;BME280;10913;51.992;9.228;2023-03-23T02:13:44;99143.28;;;12.45;100.00
21504;BME280;10913;51.992;9.228;2023-03-23T02:18:48;99137.19;;;12.43;100.00
21504;BME280;10913;51.992;9.228;2023-03-23T02:24:43;99126.69;;;12.40;100.00
21504;BME280;10913;51.992;9.228;2023-03-23T02:35:34;99110.28;;;12.29;100.00
21504;BME280;10913;51.992;9.228;2023-03-23T02:40:59;99106.88;;;12.25;100.00
21504;BME280;10913;51.992;9.228;2023-03-23T02:43:30;99097.19;;;12.24;100.00
21504;BME280;10913;51.992;9.228;2023-03-23T02:45:57;99095.38;;;12.26;100.00
21504;BME280;10913;51.992;9.228;2023-03-23T02:48:28;99094.50;;;12.26;100.00
21504;BME280;10913;51.992;9.228;2023-03-23T02:50:55;99090.13;;;12.25;100.00
21504;BME280;10913;51.992;9.228;2023-03-23T02:53:23;99087.41;;;12.26;100.00
21504;BME280;10913;51.992;9.228;2023-03-23T02:55:50;99090.13;;;12.25;100.00
21504;BME280;10913;51.992;9.228;2023-03-23T02:58:18;99082.16;;;12.25;100.00
21504;BME280;10913;51.992;9.228;2023-03-23T03:00:44;99090.13;;;12.25;100.00
21504;BME280;10913;51.992;9.228;2023-03-23T03:03:16;99080.44;;;12.24;100.00
21504;BME280;10913;51.992;9.228;2023-03-23T03:05:55;99091.91;;;12.24;100.00
21504;BME280;10913;51.992;9.228;2023-03-23T03:08:45;99099.94;;;12.21;100.00
21504;BME280;10913;51.992;9.228;2023-03-23T03:11:17;99103.41;;;12.23;100.00
21504;BME280;10913;51.992;9.228;2023-03-23T03:13:51;99103.34;;;12.25;100.00
21504;BME280;10913;51.992;9.228;2023-03-23T03:19:16;99098.09;;;12.23;100.00
21504;BME280;10913;51.992;9.228;2023-03-23T03:21:45;99092.03;;;12.20;100.00
21504;BME280;10913;51.992;9.228;2023-03-23T03:24:15;99100.94;;;12.19;100.00
21504;BME280;10913;51.992;9.228;2023-03-23T03:26:44;99099.19;;;12.18;100.00
21504;BME280;10913;51.992;9.228;2023-03-23T03:29:17;99102.75;;;12.17;100.00
21504;BME280;10913;51.992;9.228;2023-03-23T03:31:44;99079.84;;;12.16;100.00
21504;BME280;10913;51.992;9.228;2023-03-23T03:34:12;99063.19;;;12.12;100.00
21504;BME280;10913;51.992;9.228;2023-03-23T03:36:44;99058.75;;;12.13;100.00
21504;BME280;10913;51.992;9.228;2023-03-23T03:39:12;99052.66;;;12.11;100.00
21504;BME280;10913;51.992;9.228;2023-03-23T03:41:40;99056.25;;;12.08;100.00
21504;BME280;10913;51.992;9.228;2023-03-23T03:44:06;99059.88;;;12.05;100.00
21504;BME280;10913;51.992;9.228;2023-03-23T03:46:35;99056.44;;;12.02;100.00
21504;BME280;10913;51.992;9.228;2023-03-23T03:49:02;99041.44;;;12.02;100.00
21504;BME280;10913;51.992;9.228;2023-03-23T03:51:29;99041.44;;;12.02;100.00
21504;BME280;10913;51.992;9.228;2023-03-23T03:53:56;99045.03;;;12.00;100.00
21504;BME280;10913;51.992;9.228;2023-03-23T03:56:22;99050.28;;;12.01;100.00
21504;BME280;10913;51.992;9.228;2023-03-23T03:58:49;99041.47;;;12.01;100.00
21504;BME280;10913;51.992;9.228;2023-03-23T04:01:16;99038.03;;;11.99;100.00
21504;BME280;10913;51.992;9.228;2023-03-23T04:03:43;99043.25;;;12.00;100.00
21504;BME280;10913;51.992;9.228;2023-03-23T04:06:10;99046.94;;;11.96;100.00
21504;BME280;10913;51.992;9.228;2023-03-23T04:08:37;99048.78;;;11.94;100.00
21504;BME280;10913;51.992;9.228;2023-03-23T04:11:03;99050.50;;;11.95;100.00
21504;BME280;10913;51.992;9.228;2023-03-23T04:13:29;99060.06;;;11.99;100.00
21504;BME280;10913;51.992;9.228;2023-03-23T04:15:55;99042.31;;;12.03;100.00
21504;BME280;10913;51.992;9.228;2023-03-23T04:18:20;99018.56;;;12.00;100.00
21504;BME280;10913;51.992;9.228;2023-03-23T04:20:47;99029.13;;;12.01;100.00
21504;BME280;10913;51.992;9.228;2023-03-23T04:23:18;99029.13;;;12.01;100.00
21504;BME280;10913;51.992;9.228;2023-03-23T04:25:49;99013.13;;;12.04;100.00
21504;BME280;10913;51.992;9.228;2023-03-23T04:28:16;99023.72;;;12.04;100.00
21504;BME280;10913;51.992;9.228;2023-03-23T04:30:48;99019.28;;;12.05;100.00
21504;BME280;10913;51.992;9.228;2023-03-23T04:33:18;99015.84;;;12.03;100.00
21504;BME280;10913;51.992;9.228;2023-03-23T04:35:44;99020.25;;;12.02;100.00
21504;BME280;10913;51.992;9.228;2023-03-23T04:38:11;99001.63;;;12.05;100.00
21504;BME280;10913;51.992;9.228;2023-03-23T04:40:38;98995.53;;;12.03;100.00
21504;BME280;10913;51.992;9.228;2023-03-23T04:43:04;98994.50;;;12.07;99.38
21504;BME280;10913;51.992;9.228;2023-03-23T04:45:32;98998.06;;;12.06;99.47
21504;BME280;10913;51.992;9.228;2023-03-23T04:47:58;98995.53;;;12.03;99.20
21504;BME280;10913;51.992;9.228;2023-03-23T04:50:28;98997.25;;;12.04;99.40
21504;BME280;10913;51.992;9.228;2023-03-23T04:52:56;99005.25;;;12.03;99.23
21504;BME280;10913;51.992;9.228;2023-03-23T04:55:23;99039.59;;;12.04;98.95
21504;BME280;10913;51.992;9.228;2023-03-23T04:57:49;99015.88;;;12.01;98.97
21504;BME280;10913;51.992;9.228;2023-03-23T05:00:15;99031.81;;;12.00;98.97
21504;BME280;10913;51.992;9.228;2023-03-23T05:02:45;99023.94;;;11.98;99.42
21504;BME280;10913;51.992;9.228;2023-03-23T05:05:18;99023.13;;;11.96;99.12
21504;BME280;10913;51.992;9.228;2023-03-23T05:07:44;99014.28;;;11.97;99.76
21504;BME280;10913;51.992;9.228;2023-03-23T05:10:12;99018.75;;;11.95;99.81
21504;BME280;10913;51.992;9.228;2023-03-23T05:12:37;99027.59;;;11.94;100.00
21504;BME280;10913;51.992;9.228;2023-03-23T05:15:04;99031.16;;;11.93;100.00
21504;BME280;10913;51.992;9.228;2023-03-23T05:17:31;99037.28;;;11.95;100.00
21504;BME280;10913;51.992;9.228;2023-03-23T05:19:57;99041.53;;;11.99;100.00
21504;BME280;10913;51.992;9.228;2023-03-23T05:22:25;99031.88;;;11.98;100.00
21504;BME280;10913;51.992;9.228;2023-03-23T05:24:51;99034.63;;;11.95;100.00
21504;BME280;10913;51.992;9.228;2023-03-23T05:27:17;99037.31;;;11.94;100.00
21504;BME280;10913;51.992;9.228;2023-03-23T05:29:45;99038.28;;;11.91;100.00
21504;BME280;10913;51.992;9.228;2023-03-23T05:32:14;99052.44;;;11.90;100.00
21504;BME280;10913;51.992;9.228;2023-03-23T05:34:40;99047.03;;;11.93;100.00
21504;BME280;10913;51.992;9.228;2023-03-23T05:37:05;99041.75;;;11.93;100.00
21504;BME280;10913;51.992;9.228;2023-03-23T05:39:31;99048.00;;;11.91;100.00
21504;BME280;10913;51.992;9.228;2023-03-23T05:41:57;99045.31;;;11.92;100.00
21504;BME280;10913;51.992;9.228;2023-03-23T05:44:23;99051.53;;;11.91;100.00
21504;BME280;10913;51.992;9.228;2023-03-23T05:46:49;99050.50;;;11.95;100.00
21504;BME280;10913;51.992;9.228;2023-03-23T05:49:16;99045.22;;;11.95;100.00
21504;BME280;10913;51.992;9.228;2023-03-23T05:51:42;99038.19;;;11.94;100.00
21504;BME280;10913;51.992;9.228;2023-03-23T05:54:09;99029.28;;;11.97;100.00
21504;BME280;10913;51.992;9.228;2023-03-23T05:56:35;99030.25;;;11.94;100.00
21504;BME280;10913;51.992;9.228;2023-03-23T05:59:01;99024.81;;;11.99;100.00
21504;BME280;10913;51.992;9.228;2023-03-23T06:01:28;99019.44;;;12.00;100.00
21504;BME280;10913;51.992;9.228;2023-03-23T06:03:53;99022.94;;;12.01;100.00
21504;BME280;10913;51.992;9.228;2023-03-23T06:06:20;99014.16;;;12.00;100.00
21504;BME280;10913;51.992;9.228;2023-03-23T06:08:46;99014.97;;;12.02;100.00
21504;BME280;10913;51.992;9.228;2023-03-23T06:11:13;99015.88;;;12.01;100.00
21504;BME280;10913;51.992;9.228;2023-03-23T06:13:39;99018.38;;;12.06;99.75
21504;BME280;10913;51.992;9.228;2023-03-23T06:16:05;99021.78;;;12.10;99.67
21504;BME280;10913;51.992;9.228;2023-03-23T06:18:30;99019.97;;;12.12;99.80
21504;BME280;10913;51.992;9.228;2023-03-23T06:20:59;99029.53;;;12.16;99.16
21504;BME280;10913;51.992;9.228;2023-03-23T06:23:26;99033.94;;;12.17;99.00
21504;BME280;10913;51.992;9.228;2023-03-23T06:25:56;99033.06;;;12.16;99.40
21504;BME280;10913;51.992;9.228;2023-03-23T06:28:22;99037.44;;;12.17;99.13
21504;BME280;10913;51.992;9.228;2023-03-23T06:30:48;99035.56;;;12.19;99.18
21504;BME280;10913;51.992;9.228;2023-03-23T06:33:13;99040.78;;;12.22;98.78
21504;BME280;10913;51.992;9.228;2023-03-23T06:35:39;99044.13;;;12.27;98.06
21504;BME280;10913;51.992;9.228;2023-03-23T06:38:04;99047.41;;;12.35;97.74
21504;BME280;10913;51.992;9.228;2023-03-23T06:40:29;99056.00;;;12.42;97.13
21504;BME280;10913;51.992;9.228;2023-03-23T06:42:58;99047.03;;;12.46;97.06
21504;BME280;10913;51.992;9.228;2023-03-23T06:45:26;99059.19;;;12.52;97.05
21504;BME280;10913;51.992;9.228;2023-03-23T06:47:52;99052.94;;;12.54;96.75
21504;BME280;10913;51.992;9.228;2023-03-23T06:50:17;99062.50;;;12.58;96.65
21504;BME280;10913;51.992;9.228;2023-03-23T06:52:47;99058.09;;;12.59;96.78
21504;BME280;10913;51.992;9.228;2023-03-23T06:55:13;99055.47;;;12.57;96.80
21504;BME280;10913;51.992;9.228;2023-03-23T06:57:40;99060.78;;;12.57;96.67
21504;BME280;10913;51.992;9.228;2023-03-23T07:00:07;99057.22;;;12.58;96.78
21504;BME280;10913;51.992;9.228;2023-03-23T07:02:34;99064.22;;;12.59;96.92
21504;BME280;10913;51.992;9.228;2023-03-23T07:05:00;99072.09;;;12.61;96.70
21504;BME280;10913;51.992;9.228;2023-03-23T07:07:26;99060.53;;;12.63;96.40
21504;BME280;10913;51.992;9.228;2023-03-23T07:09:51;99059.56;;;12.66;96.14
21504;BME280;10913;51.992;9.228;2023-03-23T07:12:17;99081.28;;;12.77;95.99
21504;BME280;10913;51.992;9.228;2023-03-23T07:14:42;99072.03;;;12.89;95.79
21504;BME280;10913;51.992;9.228;2023-03-23T07:17:07;99066.50;;;12.95;95.02
21504;BME280;10913;51.992;9.228;2023-03-23T07:19:33;99069.91;;;12.98;94.87
21504;BME280;10913;51.992;9.228;2023-03-23T07:21:58;99069.16;;;12.95;94.40
21504;BME280;10913;51.992;9.228;2023-03-23T07:24:24;99073.19;;;13.05;94.50
21504;BME280;10913;51.992;9.228;2023-03-23T07:26:49;99086.50;;;13.28;93.98
21504;BME280;10913;51.992;9.228;2023-03-23T07:29:16;99085.66;;;13.51;92.79
21504;BME280;10913;51.992;9.228;2023-03-23T07:31:41;99082.06;;;13.75;91.67
21504;BME280;10913;51.992;9.228;2023-03-23T07:34:07;99080.34;;;13.96;90.91
21504;BME280;10913;51.992;9.228;2023-03-23T07:36:33;99074.09;;;15.02;88.51
21504;BME280;10913;51.992;9.228;2023-03-23T07:39:03;99073.28;;;16.50;82.23
21504;BME280;10913;51.992;9.228;2023-03-23T07:41:31;99081.66;;;16.78;79.92
21504;BME280;10913;51.992;9.228;2023-03-23T07:43:56;99074.03;;;16.17;79.89
21504;BME280;10913;51.992;9.228;2023-03-23T07:46:22;99083.78;;;15.81;81.45
21504;BME280;10913;51.992;9.228;2023-03-23T07:48:47;99085.81;;;15.18;83.71
21504;BME280;10913;51.992;9.228;2023-03-23T07:51:14;99076.97;;;14.97;85.00
21504;BME280;10913;51.992;9.228;2023-03-23T07:53:42;99087.69;;;14.75;85.93
21504;BME280;10913;51.992;9.228;2023-03-23T07:56:10;99095.16;;;14.45;86.57
21504;BME280;10913;51.992;9.228;2023-03-23T07:58:36;99088.72;;;14.29;87.93
21504;BME280;10913;51.992;9.228;2023-03-23T08:01:02;99097.13;;;14.19;88.20
21504;BME280;10913;51.992;9.228;2023-03-23T08:03:27;99099.34;;;14.07;88.89
21504;BME280;10913;51.992;9.228;2023-03-23T08:05:53;99099.53;;;14.03;89.37
21504;BME280;10913;51.992;9.228;2023-03-23T08:08:22;99098.78;;;13.99;88.58
21504;BME280;10913;51.992;9.228;2023-03-23T08:10:48;99094.66;;;13.92;89.62
21504;BME280;10913;51.992;9.228;2023-03-23T08:13:14;99109.19;;;13.82;89.66
21504;BME280;10913;51.992;9.228;2023-03-23T08:15:39;99126.19;;;13.78;90.34
21504;BME280;10913;51.992;9.228;2023-03-23T08:18:04;99120.19;;;13.73;89.40
21504;BME280;10913;51.992;9.228;2023-03-23T08:20:30;99113.97;;;13.74;90.08
21504;BME280;10913;51.992;9.228;2023-03-23T08:22:56;99107.63;;;13.78;90.57
21504;BME280;10913;51.992;9.228;2023-03-23T08:25:23;99112.13;;;13.76;90.00
21504;BME280;10913;51.992;9.228;2023-03-23T08:27:51;99105.88;;;13.77;89.58
21504;BME280;10913;51.992;9.228;2023-03-23T08:30:18;99111.84;;;13.82;89.20
21504;BME280;10913;51.992;9.228;2023-03-23T08:32:52;99110.59;;;13.92;89.05
21504;BME280;10913;51.992;9.228;2023-03-23T08:35:18;99108.47;;;14.00;88.65
21504;BME280;10913;51.992;9.228;2023-03-23T08:37:45;99104.78;;;14.04;87.97
21504;BME280;10913;51.992;9.228;2023-03-23T08:40:13;99113.44;;;14.09;87.25
21504;BME280;10913;51.992;9.228;2023-03-23T08:42:41;99106.38;;;14.08;87.11
21504;BME280;10913;51.992;9.228;2023-03-23T08:45:09;99107.88;;;14.16;87.49
21504;BME280;10913;51.992;9.228;2023-03-23T08:47:36;99098.94;;;14.18;86.82
21504;BME280;10913;51.992;9.228;2023-03-23T08:50:04;99101.59;;;14.18;87.10
21504;BME280;10913;51.992;9.228;2023-03-23T08:52:30;99106.03;;;14.18;86.58
21504;BME280;10913;51.992;9.228;2023-03-23T08:54:55;99101.59;;;14.18;86.51
21504;BME280;10913;51.992;9.228;2023-03-23T08:57:22;99113.06;;;14.19;85.62
21504;BME280;10913;51.992;9.228;2023-03-23T08:59:48;99110.47;;;14.17;86.40
21504;BME280;10913;51.992;9.228;2023-03-23T09:02:14;99111.53;;;14.13;85.68
21504;BME280;10913;51.992;9.228;2023-03-23T09:04:39;99104.31;;;14.17;85.52
21504;BME280;10913;51.992;9.228;2023-03-23T09:07:09;99113.19;;;14.16;85.72
21504;BME280;10913;51.992;9.228;2023-03-23T09:09:36;99104.16;;;14.20;85.50
21504;BME280;10913;51.992;9.228;2023-03-23T09:12:02;99097.91;;;14.21;85.01
21504;BME280;10913;51.992;9.228;2023-03-23T09:14:28;99104.03;;;14.23;84.97
21504;BME280;10913;51.992;9.228;2023-03-23T09:16:53;99113.72;;;14.24;85.65
21504;BME280;10913;51.992;9.228;2023-03-23T09:19:19;99113.56;;;14.28;85.42
21504;BME280;10913;51.992;9.228;2023-03-23T09:21:45;99123.31;;;14.28;85.13
21504;BME280;10913;51.992;9.228;2023-03-23T09:24:11;99122.22;;;14.33;85.36
21504;BME280;10913;51.992;9.228;2023-03-23T09:26:36;99114.06;;;14.38;85.09
21504;BME280;10913;51.992;9.228;2023-03-23T09:29:01;99120.25;;;14.38;84.04
21504;BME280;10913;51.992;9.228;2023-03-23T09:31:27;99120.13;;;14.41;84.23
21504;BME280;10913;51.992;9.228;2023-03-23T09:33:54;99136.06;;;14.41;83.90
21504;BME280;10913;51.992;9.228;2023-03-23T09:36:22;99130.56;;;14.46;83.59
21504;BME280;10913;51.992;9.228;2023-03-23T09:38:48;99129.63;;;14.47;84.04
21504;BME280;10913;51.992;9.228;2023-03-23T09:44:22;99145.06;;;14.59;83.87
21504;BME280;10913;51.992;9.228;2023-03-23T09:49:54;99147.53;;;14.64;83.92
21504;BME280;10913;51.992;9.228;2023-03-23T09:52:22;99150.25;;;14.62;82.67
21504;BME280;10913;51.992;9.228;2023-03-23T09:54:53;99159.66;;;14.71;82.17
21504;BME280;10913;51.992;9.228;2023-03-23T09:57:40;99149.88;;;14.71;82.00
21504;BME280;10913;51.992;9.228;2023-03-23T10:05:41;99166.72;;;14.72;81.42
21504;BME280;10913;51.992;9.228;2023-03-23T10:08:27;99161.38;;;14.72;81.34
21504;BME280;10913;51.992;9.228;2023-03-23T10:11:47;99166.09;;;14.65;81.56
21504;BME280;10913;51.992;9.228;2023-03-23T10:19:29;99173.19;;;14.65;81.36
21504;BME280;10913;51.992;9.228;2023-03-23T10:22:03;99172.16;;;14.69;81.15
21504;BME280;10913;51.992;9.228;2023-03-23T10:27:56;99176.53;;;14.70;80.61
21504;BME280;10913;51.992;9.228;2023-03-23T10:33:05;99194.41;;;14.66;80.06
21504;BME280;10913;51.992;9.228;2023-03-23T10:35:38;99174.25;;;14.61;80.06
21504;BME280;10913;51.992;9.228;2023-03-23T10:41:04;99173.63;;;14.76;80.27
21504;BME280;10913;51.992;9.228;2023-03-23T10:43:30;99163.22;;;14.92;80.46
21504;BME280;10913;51.992;9.228;2023-03-23T10:46:01;99171.38;;;15.07;79.07
21504;BME280;10913;51.992;9.228;2023-03-23T10:48:30;99159.75;;;15.30;78.82
21504;BME280;10913;51.992;9.228;2023-03-23T10:50:59;99173.81;;;15.73;78.35
21504;BME280;10913;51.992;9.228;2023-03-23T10:53:43;99151.19;;;16.19;76.68
21504;BME280;10913;51.992;9.228;2023-03-23T10:56:34;99165.00;;;16.46;74.64
21504;BME280;10913;51.992;9.228;2023-03-23T10:59:11;99147.69;;;16.73;74.57
21504;BME280;10913;51.992;9.228;2023-03-23T11:01:37;99150.38;;;16.91;73.39
21504;BME280;10913;51.992;9.228;2023-03-23T11:04:11;99146.09;;;17.21;73.99
21504;BME280;10913;51.992;9.228;2023-03-23T11:06:37;99139.66;;;17.25;72.08
21504;BME280;10913;51.992;9.228;2023-03-23T11:09:16;99141.06;;;17.32;72.02
21504;BME280;10913;51.992;9.228;2023-03-23T11:11:48;99141.59;;;17.39;72.80
21504;BME280;10913;51.992;9.228;2023-03-23T11:16:56;99148.09;;;17.68;70.33
21504;BME280;10913;51.992;9.228;2023-03-23T11:22:38;99148.53;;;17.58;70.82
21504;BME280;10913;51.992;9.228;2023-03-23T11:24:45;99149.22;;;17.46;70.01
21504;BME280;10913;51.992;9.228;2023-03-23T11:27:12;99152.69;;;17.31;71.36
21504;BME280;10913;51.992;9.228;2023-03-23T11:30:10;99153.25;;;17.03;70.69
21504;BME280;10913;51.992;9.228;2023-03-23T11:32:37;99145.59;;;16.97;71.24
21504;BME280;10913;51.992;9.228;2023-03-23T11:35:15;99153.47;;;16.81;71.68
21504;BME280;10913;51.992;9.228;2023-03-23T11:37:44;99169.31;;;16.67;71.78
21504;BME280;10913;51.992;9.228;2023-03-23T11:40:26;99182.59;;;16.50;72.64
21504;BME280;10913;51.992;9.228;2023-03-23T11:50:21;99179.72;;;15.79;74.68
21504;BME280;10913;51.992;9.228;2023-03-23T11:53:01;99183.69;;;15.71;73.79
21504;BME280;10913;51.992;9.228;2023-03-23T11:55:50;99178.81;;;15.60;73.52
21504;BME280;10913;51.992;9.228;2023-03-23T11:58:20;99183.38;;;15.58;73.69
21504;BME280;10913;51.992;9.228;2023-03-23T12:00:57;99181.59;;;15.59;74.54
21504;BME280;10913;51.992;9.228;2023-03-23T12:06:07;99198.91;;;15.47;75.77
21504;BME280;10913;51.992;9.228;2023-03-23T12:08:38;99231.19;;;15.39;77.26
21504;BME280;10913;51.992;9.228;2023-03-23T12:11:55;99237.03;;;15.07;81.74
21504;BME280;10913;51.992;9.228;2023-03-23T12:16:58;99252.13;;;14.63;87.49
21504;BME280;10913;51.992;9.228;2023-03-23T12:22:29;99267.13;;;14.19;91.22
21504;BME280;10913;51.992;9.228;2023-03-23T12:25:30;99272.69;;;14.12;90.35
21504;BME280;10913;51.992;9.228;2023-03-23T12:31:01;99251.53;;;14.09;90.52
21504;BME280;10913;51.992;9.228;2023-03-23T12:36:38;99253.09;;;14.15;89.31
21504;BME280;10913;51.992;9.228;2023-03-23T12:39:34;99273.59;;;14.11;89.06
21504;BME280;10913;51.992;9.228;2023-03-23T12:42:14;99273.59;;;14.11;88.70
21504;BME280;10913;51.992;9.228;2023-03-23T12:44:46;99261.41;;;14.06;88.19
21504;BME280;10913;51.992;9.228;2023-03-23T12:50:01;99261.97;;;13.91;89.17
21504;BME280;10913;51.992;9.228;2023-03-23T12:55:20;99257.88;;;14.05;88.61
21504;BME280;10913;51.992;9.228;2023-03-23T12:58:01;99262.06;;;14.12;87.63
21504;BME280;10913;51.992;9.228;2023-03-23T13:00:46;99260.22;;;14.14;87.63
21504;BME280;10913;51.992;9.228;2023-03-23T13:06:02;99250.63;;;14.10;85.57
21504;BME280;10913;51.992;9.228;2023-03-23T13:08:34;99253.88;;;14.19;86.87
21504;BME280;10913;51.992;9.228;2023-03-23T13:11:04;99250.19;;;14.21;86.98
21504;BME280;10913;51.992;9.228;2023-03-23T13:13:59;99259.09;;;14.20;86.79
21504;BME280;10913;51.992;9.228;2023-03-23T13:22:09;99284.16;;;14.13;87.45
21504;BME280;10913;51.992;9.228;2023-03-23T13:24:46;99276.03;;;13.94;87.02
21504;BME280;10913;51.992;9.228;2023-03-23T13:27:15;99272.75;;;13.86;88.05
21504;BME280;10913;51.992;9.228;2023-03-23T13:29:45;99269.66;;;13.75;88.09
21504;BME280;10913;51.992;9.228;2023-03-23T13:32:15;99260.75;;;13.76;88.89
21504;BME280;10913;51.992;9.228;2023-03-23T13:34:42;99271.00;;;13.62;89.36
21504;BME280;10913;51.992;9.228;2023-03-23T13:37:23;99268.56;;;13.56;90.44
21504;BME280;10913;51.992;9.228;2023-03-23T13:39:55;99280.00;;;13.58;91.42
21504;BME280;10913;51.992;9.228;2023-03-23T13:42:26;99270.13;;;13.61;91.69
21504;BME280;10913;51.992;9.228;2023-03-23T14:00:34;99275.31;;;13.39;93.86
21504;BME280;10913;51.992;9.228;2023-03-23T14:05:37;99263.59;;;13.20;95.01
21504;BME280;10913;51.992;9.228;2023-03-23T14:13:04;99250.94;;;13.02;96.01
21504;BME280;10913;51.992;9.228;2023-03-23T14:15:36;99250.78;;;13.06;95.87
21504;BME280;10913;51.992;9.228;2023-03-23T14:18:04;99271.03;;;13.09;95.77
21504;BME280;10913;51.992;9.228;2023-03-23T14:20:32;99268.75;;;12.98;96.68
21504;BME280;10913;51.992;9.228;2023-03-23T14:22:59;99274.91;;;12.99;96.87
21504;BME280;10913;51.992;9.228;2023-03-23T14:25:31;99272.38;;;12.96;97.50
21504;BME280;10913;51.992;9.228;2023-03-23T14:27:57;99275.66;;;13.02;98.10
21504;BME280;10913;51.992;9.228;2023-03-23T14:30:25;99270.88;;;13.15;97.70
21504;BME280;10913;51.992;9.228;2023-03-23T14:32:52;99267.94;;;13.23;97.04
21504;BME280;10913;51.992;9.228;2023-03-23T14:35:34;99270.25;;;13.33;96.69
21504;BME280;10913;51.992;9.228;2023-03-23T14:38:00;99264.16;;;13.30;97.23
21504;BME280;10913;51.992;9.228;2023-03-23T14:40:27;99274.19;;;13.20;98.23
21504;BME280;10913;51.992;9.228;2023-03-23T14:42:53;99285.97;;;13.11;99.39
21504;BME280;10913;51.992;9.228;2023-03-23T14:45:21;99296.22;;;12.96;100.00
21504;BME280;10913;51.992;9.228;2023-03-23T14:48:08;99279.78;;;12.85;100.00
21504;BME280;10913;51.992;9.228;2023-03-23T14:50:39;99287.94;;;12.79;100.00
21504;BME280;10913;51.992;9.228;2023-03-23T14:53:29;99282.53;;;12.82;100.00
21504;BME280;10913;51.992;9.228;2023-03-23T14:56:06;99281.66;;;12.81;100.00
21504;BME280;10913;51.992;9.228;2023-03-23T14:58:34;99294.09;;;12.79;100.00